createdAt,value
2019-03-01T00:00:15.671Z,10.14
2019-03-01T00:03:10.239Z,10.17
2019-03-01T00:06:20.271Z,10.15
2019-03-01T00:09:31.805Z,10.15
2019-03-01T00:12:58.498Z,10.21
2019-03-01T00:16:15.633Z,10.19
2019-03-01T00:20:06.487Z,10.06
2019-03-01T00:23:25.546Z,10.18
2019-03-01T00:26:36.016Z,10.18
2019-03-01T00:30:02.289Z,10.17
2019-03-01T00:33:13.084Z,10.16
2019-03-01T00:36:56.180Z,10.14
2019-03-01T00:40:16.085Z,10.15
2019-03-01T00:43:37.761Z,10.12
2019-03-01T00:46:28.162Z,10.04
2019-03-01T00:49:18.353Z,10.04
2019-03-01T00:52:09.336Z,10.01
2019-03-01T00:54:59.511Z,10.03
2019-03-01T00:57:50.032Z,10.03
2019-03-01T01:00:43.465Z,10.02
2019-03-01T01:03:33.444Z,10.03
2019-03-01T01:06:23.711Z,9.95
2019-03-01T01:09:13.964Z,9.86
2019-03-01T01:12:04.404Z,9.93
2019-03-01T01:14:54.685Z,9.92
2019-03-01T01:17:44.938Z,9.85
2019-03-01T01:20:35.205Z,9.88
2019-03-01T01:23:25.456Z,9.93
2019-03-01T01:26:15.450Z,9.92
2019-03-01T01:29:05.703Z,9.88
2019-03-01T01:31:55.669Z,9.87
2019-03-01T01:34:47.234Z,9.93
2019-03-01T01:37:37.552Z,9.87
2019-03-01T01:40:28.032Z,9.85
2019-03-01T01:43:19.898Z,9.82
2019-03-01T01:46:10.270Z,9.80
2019-03-01T01:49:00.461Z,9.80
2019-03-01T01:51:50.924Z,9.78
2019-03-01T01:54:40.853Z,9.79
2019-03-01T01:57:33.461Z,9.80
2019-03-01T02:00:23.486Z,9.81
2019-03-01T02:03:16.335Z,9.81
2019-03-01T02:06:06.570Z,9.81
2019-03-01T02:08:56.909Z,9.82
2019-03-01T02:11:48.299Z,9.80
2019-03-01T02:14:38.520Z,9.77
2019-03-01T02:17:28.717Z,9.65
2019-03-01T02:20:19.096Z,9.78
2019-03-01T02:23:09.466Z,9.81
2019-03-01T02:25:59.771Z,9.83
2019-03-01T02:28:49.923Z,9.84
2019-03-01T02:31:42.674Z,9.79
2019-03-01T02:34:32.671Z,9.82
2019-03-01T02:37:22.841Z,9.79
2019-03-01T02:40:13.582Z,9.71
2019-03-01T02:43:05.086Z,9.67
2019-03-01T02:45:55.935Z,9.62
2019-03-01T02:48:46.061Z,9.62
2019-03-01T02:51:36.348Z,9.59
2019-03-01T02:54:26.483Z,9.53
2019-03-01T02:57:16.911Z,9.55
2019-03-01T03:00:09.662Z,9.55
2019-03-01T03:03:00.928Z,9.57
2019-03-01T03:06:02.753Z,9.50
2019-03-01T03:08:52.822Z,9.53
2019-03-01T03:11:43.181Z,9.48
2019-03-01T03:14:34.403Z,9.48
2019-03-01T03:17:24.646Z,9.50
2019-03-01T03:20:14.828Z,9.51
2019-03-01T03:23:05.944Z,9.44
2019-03-01T03:25:56.366Z,9.56
2019-03-01T03:28:46.729Z,9.64
2019-03-01T03:31:37.003Z,9.74
2019-03-01T03:34:27.188Z,9.68
2019-03-01T03:37:17.248Z,9.63
2019-03-01T03:40:09.594Z,9.66
2019-03-01T03:43:00.143Z,9.65
2019-03-01T03:45:50.147Z,9.67
2019-03-01T03:48:40.518Z,9.73
2019-03-01T03:51:30.693Z,9.73
2019-03-01T03:54:20.993Z,9.71
2019-03-01T03:57:11.619Z,9.68
2019-03-01T04:00:01.669Z,9.58
2019-03-01T04:02:51.799Z,9.53
2019-03-01T04:05:44.632Z,9.52
2019-03-01T04:08:34.650Z,9.51
2019-03-01T04:11:27.347Z,9.53
2019-03-01T04:14:17.519Z,9.47
2019-03-01T04:17:07.874Z,9.47
2019-03-01T04:19:57.931Z,9.46
2019-03-01T04:22:47.831Z,9.44
2019-03-01T04:25:38.120Z,9.48
2019-03-01T04:28:28.422Z,9.42
2019-03-01T04:31:19.048Z,9.41
2019-03-01T04:34:09.232Z,9.39
2019-03-01T04:36:59.579Z,9.37
2019-03-01T04:39:49.732Z,9.40
2019-03-01T04:42:39.892Z,9.37
2019-03-01T04:45:30.101Z,9.39
2019-03-01T04:48:20.693Z,9.37
2019-03-01T04:51:13.523Z,9.34
2019-03-01T04:54:03.630Z,9.32
2019-03-01T04:56:53.541Z,9.31
2019-03-01T04:59:44.319Z,9.34
2019-03-01T05:02:34.524Z,9.29
2019-03-01T05:05:24.676Z,9.36
2019-03-01T05:08:15.126Z,9.42
2019-03-01T05:11:05.792Z,9.40
2019-03-01T05:13:56.018Z,9.46
2019-03-01T05:16:46.318Z,9.45
2019-03-01T05:19:36.576Z,9.50
2019-03-01T05:22:27.471Z,9.59
2019-03-01T05:25:19.742Z,9.83
2019-03-01T05:28:09.820Z,10.10
2019-03-01T05:31:00.212Z,10.30
2019-03-01T05:33:50.546Z,10.55
2019-03-01T05:36:42.025Z,10.76
2019-03-01T05:39:32.310Z,10.98
2019-03-01T05:42:22.716Z,11.18
2019-03-01T05:45:16.650Z,11.31
2019-03-01T05:48:06.675Z,11.48
2019-03-01T05:50:56.907Z,11.67
2019-03-01T05:53:47.106Z,11.91
2019-03-01T05:56:37.349Z,12.64
2019-03-01T05:59:30.650Z,13.47
2019-03-01T06:02:46.572Z,14.74
2019-03-01T06:05:39.368Z,15.97
2019-03-01T06:09:06.144Z,17.58
2019-03-01T06:12:38.012Z,18.58
2019-03-01T06:16:07.545Z,19.51
2019-03-01T06:19:16.928Z,20.38
2019-03-01T06:22:35.846Z,21.36
2019-03-01T06:26:06.794Z,21.75
2019-03-01T06:29:25.052Z,23.02
2019-03-01T06:32:58.584Z,23.69
2019-03-01T06:36:02.083Z,24.71
2019-03-01T06:39:39.373Z,25.67
2019-03-01T06:43:04.060Z,26.75
2019-03-01T06:46:25.696Z,26.69
2019-03-01T06:49:31.655Z,27.34
2019-03-01T06:52:23.035Z,27.50
2019-03-01T06:55:34.928Z,28.65
2019-03-01T06:58:31.908Z,29.34
2019-03-01T07:01:34.769Z,30.23
2019-03-01T07:04:25.707Z,30.61
2019-03-01T07:07:16.786Z,30.76
2019-03-01T07:10:08.565Z,30.53
2019-03-01T07:12:59.573Z,30.22
2019-03-01T07:15:52.866Z,31.92
2019-03-01T07:18:44.034Z,31.92
2019-03-01T07:21:35.545Z,31.70
2019-03-01T07:24:26.634Z,31.70
2019-03-01T07:27:17.593Z,32.41
2019-03-01T07:30:08.661Z,31.75
2019-03-01T07:32:59.213Z,32.35
2019-03-01T07:35:50.916Z,32.96
2019-03-01T07:38:41.639Z,33.36
2019-03-01T07:41:32.405Z,34.45
2019-03-01T07:44:23.237Z,34.27
2019-03-01T07:47:14.146Z,35.20
2019-03-01T07:50:05.636Z,35.20
2019-03-01T07:52:56.341Z,29.87
2019-03-01T07:55:49.822Z,30.83
2019-03-01T07:58:40.855Z,24.78
2019-03-01T08:01:31.741Z,23.23
2019-03-01T08:04:23.774Z,22.90
2019-03-01T08:07:15.089Z,24.57
2019-03-01T08:10:07.978Z,26.00
2019-03-01T08:12:58.765Z,25.19
2019-03-01T08:15:49.847Z,26.13
2019-03-01T08:18:44.119Z,27.57
2019-03-01T08:21:33.475Z,24.96
2019-03-01T08:24:24.424Z,27.13
2019-03-01T08:27:15.339Z,27.83
2019-03-01T08:30:10.270Z,29.17
2019-03-01T08:33:02.626Z,29.38
2019-03-01T08:35:54.124Z,26.87
2019-03-01T08:38:45.150Z,26.87
2019-03-01T08:41:35.742Z,25.52
2019-03-01T08:44:27.463Z,24.74
2019-03-01T08:47:23.471Z,21.83
2019-03-01T08:50:11.544Z,21.10
2019-03-01T08:53:01.706Z,21.45
2019-03-01T08:55:53.138Z,20.83
2019-03-01T08:58:43.494Z,21.28
2019-03-01T09:01:35.149Z,21.88
2019-03-01T09:04:25.524Z,21.93
2019-03-01T09:07:15.906Z,21.13
2019-03-01T09:10:06.604Z,21.30
2019-03-01T09:12:59.740Z,21.29
2019-03-01T09:15:50.462Z,21.46
2019-03-01T09:18:40.950Z,21.68
2019-03-01T09:21:31.327Z,22.72
2019-03-01T09:24:22.261Z,23.19
2019-03-01T09:27:13.172Z,24.64
2019-03-01T09:30:04.205Z,25.62
2019-03-01T09:32:55.213Z,25.94
2019-03-01T09:35:53.660Z,26.18
2019-03-01T09:38:44.594Z,25.63
2019-03-01T09:41:36.598Z,25.13
2019-03-01T09:44:27.462Z,24.11
2019-03-01T09:47:17.862Z,23.49
2019-03-01T09:50:08.900Z,22.77
2019-03-01T09:53:00.059Z,22.41
2019-03-01T09:55:50.318Z,21.50
2019-03-01T09:58:40.862Z,21.58
2019-03-01T10:01:30.933Z,21.22
2019-03-01T10:04:22.436Z,20.88
2019-03-01T10:07:13.044Z,20.46
2019-03-01T10:10:03.578Z,20.14
2019-03-01T10:12:53.834Z,20.09
2019-03-01T10:15:44.211Z,20.13
2019-03-01T10:18:34.333Z,19.93
2019-03-01T10:21:24.774Z,19.71
2019-03-01T10:24:14.924Z,19.57
2019-03-01T10:27:05.192Z,19.64
2019-03-01T10:29:55.475Z,19.61
2019-03-01T10:32:46.406Z,19.60
2019-03-01T10:35:36.854Z,19.54
2019-03-01T10:38:27.436Z,19.55
2019-03-01T10:41:17.672Z,19.65
2019-03-01T10:44:08.007Z,19.65
2019-03-01T10:46:59.537Z,19.81
2019-03-01T10:49:50.043Z,19.94
2019-03-01T10:52:41.778Z,20.00
2019-03-01T10:55:32.527Z,20.09
2019-03-01T10:58:22.881Z,20.09
2019-03-01T11:01:13.275Z,20.16
2019-03-01T11:04:03.642Z,20.44
2019-03-01T11:06:54.308Z,20.35
2019-03-01T11:09:44.488Z,20.25
2019-03-01T11:12:38.071Z,20.07
2019-03-01T11:15:28.086Z,20.04
2019-03-01T11:18:18.812Z,19.89
2019-03-01T11:21:11.748Z,19.82
2019-03-01T11:24:02.287Z,19.73
2019-03-01T11:26:52.756Z,19.59
2019-03-01T11:29:43.223Z,19.59
2019-03-01T11:32:33.254Z,19.44
2019-03-01T11:35:23.558Z,19.41
2019-03-01T11:38:13.898Z,19.41
2019-03-01T11:41:05.079Z,19.38
2019-03-01T11:43:55.556Z,19.35
2019-03-01T11:46:45.944Z,19.29
2019-03-01T11:49:36.473Z,19.29
2019-03-01T11:52:26.790Z,19.26
2019-03-01T11:55:17.636Z,19.42
2019-03-01T11:58:08.151Z,19.52
2019-03-01T12:00:58.629Z,19.54
2019-03-01T12:03:48.761Z,19.54
2019-03-01T12:06:39.489Z,19.64
2019-03-01T12:09:29.687Z,19.61
2019-03-01T12:12:19.917Z,19.56
2019-03-01T12:15:10.542Z,19.69
2019-03-01T12:18:00.714Z,19.78
2019-03-01T12:20:51.732Z,19.93
2019-03-01T12:23:41.848Z,19.95
2019-03-01T12:26:33.420Z,20.14
2019-03-01T12:29:24.937Z,20.05
2019-03-01T12:32:15.797Z,20.10
2019-03-01T12:35:06.750Z,20.11
2019-03-01T12:37:57.247Z,20.13
2019-03-01T12:40:47.722Z,20.08
2019-03-01T12:43:38.657Z,19.79
2019-03-01T12:46:28.884Z,19.75
2019-03-01T12:49:19.186Z,19.84
2019-03-01T12:52:09.172Z,19.84
2019-03-01T12:54:59.617Z,19.87
2019-03-01T12:57:49.946Z,19.87
2019-03-01T13:00:40.467Z,19.92
2019-03-01T13:03:31.638Z,20.07
2019-03-01T13:06:22.256Z,20.12
2019-03-01T13:09:15.850Z,20.22
2019-03-01T13:12:06.221Z,20.19
2019-03-01T13:14:56.657Z,20.29
2019-03-01T13:17:47.190Z,20.19
2019-03-01T13:20:38.150Z,20.33
2019-03-01T13:23:31.105Z,20.52
2019-03-01T13:26:21.681Z,20.49
2019-03-01T13:29:11.915Z,20.46
2019-03-01T13:32:01.924Z,20.42
2019-03-01T13:34:53.324Z,20.14
2019-03-01T13:37:43.643Z,20.18
2019-03-01T13:40:34.224Z,20.19
2019-03-01T13:43:27.417Z,20.01
2019-03-01T13:46:16.190Z,19.86
2019-03-01T13:49:06.573Z,19.78
2019-03-01T13:51:57.045Z,19.69
2019-03-01T13:54:47.254Z,19.69
2019-03-01T13:57:37.465Z,19.71
2019-03-01T14:00:27.736Z,19.90
2019-03-01T14:03:20.816Z,19.90
2019-03-01T14:06:10.345Z,19.85
2019-03-01T14:09:00.689Z,19.91
2019-03-01T14:11:55.742Z,19.90
2019-03-01T14:14:44.374Z,20.00
2019-03-01T14:17:34.700Z,19.95
2019-03-01T14:20:24.873Z,19.80
2019-03-01T14:23:15.150Z,19.61
2019-03-01T14:26:06.688Z,19.65
2019-03-01T14:28:57.097Z,19.66
2019-03-01T14:31:47.624Z,19.63
2019-03-01T14:34:37.842Z,19.65
2019-03-01T14:37:28.666Z,19.70
2019-03-01T14:40:22.214Z,19.66
2019-03-01T14:43:12.310Z,19.59
2019-03-01T14:46:02.621Z,19.59
2019-03-01T14:48:53.410Z,19.62
2019-03-01T14:51:46.549Z,19.51
2019-03-01T14:54:35.632Z,19.56
2019-03-01T14:57:38.761Z,19.48
2019-03-01T15:00:53.596Z,19.47
2019-03-01T15:03:43.563Z,19.42
2019-03-01T15:06:34.128Z,19.31
2019-03-01T15:09:24.392Z,19.11
2019-03-01T15:12:19.667Z,19.11
2019-03-01T15:15:06.938Z,19.14
2019-03-01T15:17:57.904Z,19.09
2019-03-01T15:20:48.443Z,19.04
2019-03-01T15:23:38.908Z,18.97
2019-03-01T15:26:29.310Z,18.84
2019-03-01T15:29:19.886Z,18.76
2019-03-01T15:32:12.437Z,18.67
2019-03-01T15:35:04.039Z,18.69
2019-03-01T15:37:54.577Z,18.63
2019-03-01T15:40:45.183Z,18.53
2019-03-01T15:43:35.526Z,18.49
2019-03-01T15:46:25.940Z,18.36
2019-03-01T15:49:16.314Z,18.29
2019-03-01T15:52:06.445Z,18.30
2019-03-01T15:54:57.591Z,18.28
2019-03-01T15:57:47.730Z,18.19
2019-03-01T16:00:38.022Z,18.13
2019-03-01T16:03:28.165Z,18.01
2019-03-01T16:06:22.253Z,17.70
2019-03-01T16:09:17.625Z,17.64
2019-03-01T16:12:07.688Z,17.61
2019-03-01T16:15:00.572Z,17.55
2019-03-01T16:17:50.485Z,17.40
2019-03-01T16:20:40.870Z,17.31
2019-03-01T16:23:31.155Z,17.34
2019-03-01T16:26:29.658Z,17.22
2019-03-01T16:29:14.569Z,17.16
2019-03-01T16:32:08.149Z,17.09
2019-03-01T16:34:57.338Z,16.88
2019-03-01T16:37:49.452Z,16.79
2019-03-01T16:40:39.923Z,16.78
2019-03-01T16:43:30.196Z,16.74
2019-03-01T16:46:21.513Z,16.73
2019-03-01T16:49:12.012Z,16.66
2019-03-01T16:52:02.423Z,16.60
2019-03-01T16:54:54.763Z,16.10
2019-03-01T16:57:44.881Z,16.35
2019-03-01T17:00:35.263Z,16.20
2019-03-01T17:03:25.598Z,16.11
2019-03-01T17:06:15.942Z,16.17
2019-03-01T17:09:07.809Z,16.19
2019-03-01T17:11:58.300Z,16.16
2019-03-01T17:14:48.675Z,16.06
2019-03-01T17:17:39.539Z,16.04
2019-03-01T17:20:31.264Z,15.98
2019-03-01T17:23:22.170Z,15.84
2019-03-01T17:26:12.614Z,15.72
2019-03-01T17:29:04.104Z,15.64
2019-03-01T17:31:54.812Z,15.51
2019-03-01T17:34:46.005Z,15.52
2019-03-01T17:37:36.407Z,15.47
2019-03-01T17:40:29.388Z,15.36
2019-03-01T17:43:18.275Z,15.33
2019-03-01T17:46:08.735Z,15.30
2019-03-01T17:48:59.081Z,15.24
2019-03-01T17:51:49.308Z,15.08
2019-03-01T17:54:39.608Z,14.98
2019-03-01T17:57:33.120Z,15.04
2019-03-01T18:00:28.186Z,15.04
2019-03-01T18:03:18.600Z,14.99
2019-03-01T18:06:16.816Z,15.02
2019-03-01T18:09:06.610Z,15.11
2019-03-01T18:11:58.040Z,15.14
2019-03-01T18:14:48.309Z,15.22
2019-03-01T18:17:38.433Z,15.30
2019-03-01T18:20:28.743Z,15.35
2019-03-01T18:23:21.903Z,15.42
2019-03-01T18:26:12.075Z,15.41
2019-03-01T18:29:04.429Z,15.47
2019-03-01T18:31:54.756Z,15.43
2019-03-01T18:34:45.077Z,15.44
2019-03-01T18:37:35.635Z,15.46
2019-03-01T18:40:26.111Z,15.43
2019-03-01T18:43:19.660Z,15.41
2019-03-01T18:46:11.256Z,15.46
2019-03-01T18:49:01.707Z,15.41
2019-03-01T18:51:52.020Z,15.35
2019-03-01T18:54:43.043Z,15.33
2019-03-01T18:57:35.410Z,15.32
2019-03-01T19:00:35.835Z,15.28
2019-03-01T19:03:25.316Z,15.24
2019-03-01T19:06:16.240Z,15.16
2019-03-01T19:09:08.675Z,15.15
2019-03-01T19:11:59.031Z,15.13
2019-03-01T19:14:49.214Z,15.21
2019-03-01T19:17:40.730Z,15.17
2019-03-01T19:20:32.062Z,15.15
2019-03-01T19:23:22.101Z,15.17
2019-03-01T19:26:13.115Z,15.18
2019-03-01T19:29:03.698Z,15.07
2019-03-01T19:31:54.001Z,15.06
2019-03-01T19:34:44.538Z,15.06
2019-03-01T19:37:35.218Z,15.05
2019-03-01T19:40:25.360Z,15.03
2019-03-01T19:43:15.786Z,14.97
2019-03-01T19:46:07.259Z,14.32
2019-03-01T19:48:58.664Z,14.18
2019-03-01T19:51:49.161Z,14.16
2019-03-01T19:54:39.712Z,14.21
2019-03-01T19:57:30.107Z,14.23
2019-03-01T20:00:22.013Z,14.25
2019-03-01T20:03:13.071Z,14.31
2019-03-01T20:06:04.542Z,14.24
2019-03-01T20:08:55.368Z,14.15
2019-03-01T20:11:45.479Z,14.20
2019-03-01T20:14:35.771Z,14.15
2019-03-01T20:17:26.103Z,14.16
2019-03-01T20:20:17.769Z,14.26
2019-03-01T20:23:08.035Z,14.32
2019-03-01T20:25:59.372Z,14.21
2019-03-01T20:28:50.464Z,14.38
2019-03-01T20:31:41.737Z,14.38
2019-03-01T20:34:34.868Z,14.40
2019-03-01T20:37:24.759Z,14.49
2019-03-01T20:40:15.801Z,14.54
2019-03-01T20:43:07.018Z,14.40
2019-03-01T20:45:57.378Z,14.36
2019-03-01T20:48:48.781Z,14.43
2019-03-01T20:51:38.821Z,14.21
2019-03-01T20:54:29.256Z,14.27
2019-03-01T20:57:19.360Z,14.18
2019-03-01T21:00:12.010Z,14.13
2019-03-01T21:03:02.128Z,14.12
2019-03-01T21:05:52.721Z,14.09
2019-03-01T21:08:43.030Z,14.14
2019-03-01T21:11:33.471Z,14.17
2019-03-01T21:14:27.000Z,14.20
2019-03-01T21:17:16.740Z,14.20
2019-03-01T21:20:08.381Z,14.16
2019-03-01T21:22:59.088Z,14.16
2019-03-01T21:25:49.548Z,14.18
2019-03-01T21:28:41.721Z,14.15
2019-03-01T21:31:35.147Z,14.19
2019-03-01T21:34:24.158Z,13.84
2019-03-01T21:37:16.586Z,13.92
2019-03-01T21:40:07.304Z,13.94
2019-03-01T21:43:00.009Z,13.86
2019-03-01T21:45:49.222Z,13.78
2019-03-01T21:48:39.464Z,13.72
2019-03-01T21:51:30.561Z,13.64
2019-03-01T21:54:20.664Z,13.71
2019-03-01T21:57:11.008Z,13.70
2019-03-01T22:00:01.145Z,13.64
2019-03-01T22:02:54.321Z,13.56
2019-03-01T22:05:45.388Z,13.53
2019-03-01T22:08:36.142Z,13.43
2019-03-01T22:11:26.472Z,13.27
2019-03-01T22:14:16.872Z,13.22
2019-03-01T22:17:07.292Z,13.23
2019-03-01T22:19:57.855Z,13.20
2019-03-01T22:22:48.182Z,13.23
2019-03-01T22:25:39.094Z,13.23
2019-03-01T22:28:32.649Z,13.19
2019-03-01T22:31:21.111Z,13.06
2019-03-01T22:34:11.439Z,13.03
2019-03-01T22:37:01.838Z,12.99
2019-03-01T22:39:52.338Z,12.89
2019-03-01T22:42:45.828Z,12.91
2019-03-01T22:45:35.229Z,12.90
2019-03-01T22:48:25.843Z,12.94
2019-03-01T22:51:18.013Z,12.99
2019-03-01T22:54:08.525Z,13.03
2019-03-01T22:56:58.880Z,13.00
2019-03-01T22:59:49.350Z,13.00
2019-03-01T23:02:43.507Z,12.85
2019-03-01T23:05:35.508Z,12.87
2019-03-01T23:08:25.651Z,12.90
2019-03-01T23:11:18.211Z,12.92
2019-03-01T23:14:08.340Z,13.00
2019-03-01T23:16:59.112Z,12.99
2019-03-01T23:19:51.609Z,12.95
2019-03-01T23:22:42.786Z,12.99
2019-03-01T23:25:33.604Z,13.07
2019-03-01T23:28:23.892Z,13.19
2019-03-01T23:31:14.289Z,13.30
2019-03-01T23:34:07.049Z,13.41
2019-03-01T23:36:57.039Z,13.50
2019-03-01T23:39:47.432Z,13.59
2019-03-01T23:42:37.845Z,13.70
2019-03-01T23:45:28.302Z,13.66
2019-03-01T23:48:18.585Z,13.69
2019-03-01T23:51:10.557Z,13.62
2019-03-01T23:54:01.023Z,13.56
2019-03-01T23:56:51.674Z,13.50
2019-03-01T23:59:42.174Z,13.30
